TimeEDT,TemperatureF,Dew PointF,Humidity,Sea Level PressureIn,VisibilityMPH,Wind Direction,Wind SpeedMPH,Gust SpeedMPH,PrecipitationIn,Events,Conditions,WindDirDegrees,DateUTC
12:56 AM,63.0,59.0,87,30.01,10.0,South,3.5,-,N/A,,Clear,190,2013-08-08 04:56:00
1:56 AM,64.0,60.1,87,30.00,10.0,SSW,5.8,-,N/A,,Clear,210,2013-08-08 05:56:00
2:56 AM,64.0,60.1,87,29.99,10.0,SW,11.5,-,N/A,,Clear,220,2013-08-08 06:56:00
3:56 AM,64.9,60.1,84,29.98,10.0,SSW,5.8,-,N/A,,Clear,210,2013-08-08 07:56:00
4:30 AM,62.6,60.8,94,30.02,10.0,South,5.8,-,N/A,,Mostly Cloudy,180,2013-08-08 08:30:00
4:47 AM,64.4,60.8,88,30.03,10.0,Calm,Calm,-,N/A,Thunderstorm,Overcast,0,2013-08-08 08:47:00
4:56 AM,64.9,61.0,87,30.00,10.0,SSE,3.5,-,N/A,Thunderstorm,Overcast,160,2013-08-08 08:56:00
5:54 AM,64.4,62.6,94,30.06,2.5,NW,11.5,17.3,0.15,Rain-Thunderstorm,Heavy Thunderstorms and Rain,320,2013-08-08 09:54:00
5:56 AM,64.0,62.1,93,30.04,1.8,NW,11.5,17.3,0.20,Rain-Thunderstorm,Heavy Thunderstorms and Rain,310,2013-08-08 09:56:00
6:08 AM,62.6,62.6,100,30.06,2.0,NNW,5.8,-,0.15,Rain-Thunderstorm,Thunderstorms and Rain,330,2013-08-08 10:08:00
6:13 AM,62.6,62.6,100,30.05,4.0,Calm,Calm,-,0.16,Rain-Thunderstorm,Thunderstorms and Rain,0,2013-08-08 10:13:00
6:15 AM,62.6,62.6,100,30.04,2.5,SSE,5.8,-,0.16,Rain-Thunderstorm,Thunderstorms and Rain,150,2013-08-08 10:15:00
6:18 AM,62.6,62.6,100,30.05,1.0,Calm,Calm,-,0.17,Rain-Thunderstorm,Thunderstorms and Rain,0,2013-08-08 10:18:00
6:21 AM,62.6,62.6,100,30.04,0.8,Calm,Calm,-,0.18,Rain-Thunderstorm,Thunderstorms and Rain,0,2013-08-08 10:21:00
6:31 AM,62.6,60.8,94,30.04,0.2,East,3.5,-,0.19,Fog-Rain-Thunderstorm,Light Rain,90,2013-08-08 10:31:00
6:35 AM,62.6,60.8,94,30.04,0.2,SE,5.8,-,0.19,Fog-Rain-Thunderstorm,Light Rain,130,2013-08-08 10:35:00
6:44 AM,62.6,62.6,100,30.04,0.2,SE,5.8,-,0.19,Fog-Rain,Light Rain,130,2013-08-08 10:44:00
6:56 AM,63.0,62.1,97,30.02,0.2,SSE,5.8,-,0.19,Fog,Fog,150,2013-08-08 10:56:00
7:12 AM,62.6,62.6,100,30.04,1.0,SSE,5.8,-,N/A,,Mist,160,2013-08-08 11:12:00
7:15 AM,62.6,62.6,100,30.04,3.0,SSE,4.6,-,N/A,,Mostly Cloudy,160,2013-08-08 11:15:00
7:31 AM,62.6,62.6,100,30.05,10.0,South,8.1,-,N/A,,Mostly Cloudy,190,2013-08-08 11:31:00
7:56 AM,64.9,64.0,97,30.02,10.0,SSW,6.9,-,N/A,,Mostly Cloudy,200,2013-08-08 11:56:00
8:56 AM,68.0,64.9,90,30.01,10.0,ESE,3.5,-,N/A,,Overcast,120,2013-08-08 12:56:00
9:22 AM,71.6,66.2,83,30.05,10.0,West,3.5,-,N/A,,Scattered Clouds,270,2013-08-08 13:22:00
9:56 AM,71.1,64.9,81,30.03,10.0,South,5.8,-,N/A,,Partly Cloudy,190,2013-08-08 13:56:00
10:56 AM,73.9,66.9,79,30.01,10.0,South,5.8,-,N/A,,Scattered Clouds,180,2013-08-08 14:56:00
11:04 AM,75.2,68.0,78,30.05,10.0,South,6.9,-,N/A,,Mostly Cloudy,180,2013-08-08 15:04:00
11:37 AM,75.2,68.0,78,30.04,10.0,WSW,8.1,-,N/A,,Scattered Clouds,240,2013-08-08 15:37:00
11:56 AM,73.9,66.9,79,30.02,10.0,WSW,8.1,-,N/A,,Mostly Cloudy,240,2013-08-08 15:56:00
12:56 PM,75.9,68.0,76,30.03,10.0,Variable,6.9,-,N/A,,Scattered Clouds,0,2013-08-08 16:56:00
1:56 PM,78.1,68.0,71,30.01,10.0,SSW,6.9,-,N/A,,Scattered Clouds,200,2013-08-08 17:56:00
2:56 PM,77.0,66.9,71,30.01,10.0,SSW,11.5,-,N/A,,Mostly Cloudy,210,2013-08-08 18:56:00
3:56 PM,77.0,66.9,71,29.99,10.0,SSW,6.9,-,N/A,,Clear,210,2013-08-08 19:56:00
4:56 PM,79.0,68.0,69,29.97,10.0,SW,9.2,-,N/A,,Partly Cloudy,220,2013-08-08 20:56:00
5:56 PM,78.1,66.9,68,29.97,10.0,SW,8.1,-,N/A,,Clear,220,2013-08-08 21:56:00
6:36 PM,78.8,66.2,65,30.00,10.0,SW,9.2,-,N/A,Thunderstorm,Clear,230,2013-08-08 22:36:00
6:51 PM,78.8,66.2,65,30.01,10.0,SSW,6.9,-,N/A,,Clear,210,2013-08-08 22:51:00
6:56 PM,77.0,66.9,71,29.98,10.0,SW,4.6,-,N/A,,Clear,220,2013-08-08 22:56:00
7:22 PM,73.4,66.2,78,30.02,10.0,Calm,Calm,-,N/A,,Mostly Cloudy,0,2013-08-08 23:22:00
7:56 PM,73.0,64.9,76,29.98,10.0,North,5.8,-,N/A,Thunderstorm,Overcast,360,2013-08-08 23:56:00
8:18 PM,71.6,66.2,83,30.02,10.0,WSW,6.9,-,0.00,Rain,Light Rain,250,2013-08-09 00:18:00
8:56 PM,72.0,64.9,78,29.99,10.0,Variable,3.5,-,0.00,,Overcast,0,2013-08-09 00:56:00
9:36 PM,69.8,64.4,83,30.03,10.0,Calm,Calm,-,N/A,,Mostly Cloudy,0,2013-08-09 01:36:00
9:56 PM,68.0,64.9,90,29.99,10.0,Calm,Calm,-,0.00,,Mostly Cloudy,0,2013-08-09 01:56:00
10:11 PM,68.0,64.4,88,30.03,10.0,WSW,4.6,-,N/A,,Mostly Cloudy,240,2013-08-09 02:11:00
10:41 PM,69.8,66.2,88,30.03,9.0,Calm,Calm,-,N/A,,Mostly Cloudy,0,2013-08-09 02:41:00
10:56 PM,68.0,66.0,93,29.99,8.0,SE,3.5,-,N/A,,Overcast,130,2013-08-09 02:56:00
11:20 PM,68.0,66.2,94,30.02,4.0,Calm,Calm,-,N/A,,Overcast,0,2013-08-09 03:20:00
11:34 PM,68.0,66.2,94,30.02,6.0,Calm,Calm,-,N/A,,Overcast,0,2013-08-09 03:34:00
11:56 PM,69.1,66.0,90,29.98,6.0,Calm,Calm,-,N/A,,Mostly Cloudy,0,2013-08-09 03:56:00